sensor_id;sensor_type;location;lat;lon;timestamp;P1;durP1;ratioP1;P2;durP2;ratioP2
32810;SDS011;65470;47.324;8.548;2023-05-07T00:00:25;5.75;;;2.40;;
32810;SDS011;65470;47.324;8.548;2023-05-07T00:02:51;3.78;;;2.75;;
32810;SDS011;65470;47.324;8.548;2023-05-07T00:05:17;8.63;;;2.78;;
32810;SDS011;65470;47.324;8.548;2023-05-07T00:07:42;4.93;;;2.65;;
32810;SDS011;65470;47.324;8.548;2023-05-07T00:10:09;2.45;;;2.13;;
32810;SDS011;65470;47.324;8.548;2023-05-07T00:12:37;4.70;;;2.65;;
32810;SDS011;65470;47.324;8.548;2023-05-07T00:15:03;2.70;;;2.50;;
32810;SDS011;65470;47.324;8.548;2023-05-07T00:17:30;3.63;;;3.00;;
32810;SDS011;65470;47.324;8.548;2023-05-07T00:19:56;2.88;;;2.25;;
32810;SDS011;65470;47.324;8.548;2023-05-07T00:22:21;4.07;;;2.80;;
32810;SDS011;65470;47.324;8.548;2023-05-07T00:24:47;2.78;;;2.40;;
32810;SDS011;65470;47.324;8.548;2023-05-07T00:27:13;3.65;;;2.50;;
32810;SDS011;65470;47.324;8.548;2023-05-07T00:29:38;3.50;;;3.08;;
32810;SDS011;65470;47.324;8.548;2023-05-07T00:32:04;3.65;;;2.80;;
32810;SDS011;65470;47.324;8.548;2023-05-07T00:34:31;2.83;;;2.53;;
32810;SDS011;65470;47.324;8.548;2023-05-07T00:36:56;3.70;;;2.80;;
32810;SDS011;65470;47.324;8.548;2023-05-07T00:39:22;3.03;;;2.70;;
32810;SDS011;65470;47.324;8.548;2023-05-07T00:41:47;6.72;;;2.60;;
32810;SDS011;65470;47.324;8.548;2023-05-07T00:44:13;5.65;;;3.03;;
32810;SDS011;65470;47.324;8.548;2023-05-07T00:46:39;2.80;;;2.47;;
32810;SDS011;65470;47.324;8.548;2023-05-07T00:49:05;3.40;;;2.53;;
32810;SDS011;65470;47.324;8.548;2023-05-07T00:51:32;4.22;;;2.88;;
32810;SDS011;65470;47.324;8.548;2023-05-07T00:53:59;3.65;;;2.97;;
32810;SDS011;65470;47.324;8.548;2023-05-07T00:56:26;5.55;;;2.42;;
32810;SDS011;65470;47.324;8.548;2023-05-07T00:58:52;4.38;;;3.40;;
32810;SDS011;65470;47.324;8.548;2023-05-07T01:01:18;5.57;;;3.03;;
32810;SDS011;65470;47.324;8.548;2023-05-07T01:03:44;5.10;;;2.90;;
32810;SDS011;65470;47.324;8.548;2023-05-07T01:06:10;5.25;;;3.13;;
32810;SDS011;65470;47.324;8.548;2023-05-07T01:08:37;4.03;;;3.08;;
32810;SDS011;65470;47.324;8.548;2023-05-07T01:11:07;4.03;;;3.30;;
32810;SDS011;65470;47.324;8.548;2023-05-07T01:13:34;4.85;;;3.00;;
32810;SDS011;65470;47.324;8.548;2023-05-07T01:16:01;4.45;;;3.70;;
32810;SDS011;65470;47.324;8.548;2023-05-07T01:18:28;3.70;;;3.40;;
32810;SDS011;65470;47.324;8.548;2023-05-07T01:20:55;6.60;;;3.08;;
32810;SDS011;65470;47.324;8.548;2023-05-07T01:23:23;5.53;;;3.20;;
32810;SDS011;65470;47.324;8.548;2023-05-07T01:25:52;5.65;;;3.40;;
32810;SDS011;65470;47.324;8.548;2023-05-07T01:28:18;3.55;;;3.17;;
32810;SDS011;65470;47.324;8.548;2023-05-07T01:30:45;5.88;;;3.30;;
32810;SDS011;65470;47.324;8.548;2023-05-07T01:33:15;4.15;;;3.40;;
32810;SDS011;65470;47.324;8.548;2023-05-07T01:35:46;5.03;;;3.40;;
32810;SDS011;65470;47.324;8.548;2023-05-07T01:38:15;5.38;;;3.03;;
32810;SDS011;65470;47.324;8.548;2023-05-07T01:40:43;5.03;;;3.60;;
32810;SDS011;65470;47.324;8.548;2023-05-07T01:43:09;6.45;;;3.45;;
32810;SDS011;65470;47.324;8.548;2023-05-07T01:45:35;4.53;;;4.00;;
32810;SDS011;65470;47.324;8.548;2023-05-07T01:48:02;7.47;;;4.75;;
32810;SDS011;65470;47.324;8.548;2023-05-07T01:50:28;6.55;;;4.43;;
32810;SDS011;65470;47.324;8.548;2023-05-07T01:52:54;7.47;;;4.75;;
32810;SDS011;65470;47.324;8.548;2023-05-07T01:55:20;11.68;;;4.78;;
32810;SDS011;65470;47.324;8.548;2023-05-07T01:57:46;7.18;;;4.45;;
32810;SDS011;65470;47.324;8.548;2023-05-07T02:03:34;6.80;;;4.40;;
32810;SDS011;65470;47.324;8.548;2023-05-07T02:05:59;3.88;;;3.47;;
32810;SDS011;65470;47.324;8.548;2023-05-07T02:08:25;3.67;;;3.38;;
32810;SDS011;65470;47.324;8.548;2023-05-07T02:10:50;4.03;;;3.40;;
32810;SDS011;65470;47.324;8.548;2023-05-07T02:13:16;12.60;;;4.00;;
32810;SDS011;65470;47.324;8.548;2023-05-07T02:15:42;5.88;;;3.58;;
32810;SDS011;65470;47.324;8.548;2023-05-07T02:18:09;3.60;;;3.30;;
32810;SDS011;65470;47.324;8.548;2023-05-07T02:20:35;3.97;;;3.65;;
32810;SDS011;65470;47.324;8.548;2023-05-07T02:23:00;4.88;;;3.90;;
32810;SDS011;65470;47.324;8.548;2023-05-07T02:25:26;5.50;;;3.92;;
32810;SDS011;65470;47.324;8.548;2023-05-07T02:27:52;5.38;;;3.38;;
32810;SDS011;65470;47.324;8.548;2023-05-07T02:30:17;4.00;;;3.50;;
32810;SDS011;65470;47.324;8.548;2023-05-07T02:32:43;4.30;;;3.50;;
32810;SDS011;65470;47.324;8.548;2023-05-07T02:35:09;5.95;;;3.50;;
32810;SDS011;65470;47.324;8.548;2023-05-07T02:37:35;6.97;;;3.20;;
32810;SDS011;65470;47.324;8.548;2023-05-07T02:40:00;8.63;;;3.58;;
32810;SDS011;65470;47.324;8.548;2023-05-07T02:42:26;5.55;;;3.75;;
32810;SDS011;65470;47.324;8.548;2023-05-07T02:44:51;6.38;;;4.07;;
32810;SDS011;65470;47.324;8.548;2023-05-07T02:47:17;3.65;;;3.30;;
32810;SDS011;65470;47.324;8.548;2023-05-07T02:49:43;5.05;;;3.53;;
32810;SDS011;65470;47.324;8.548;2023-05-07T02:52:08;5.10;;;3.83;;
32810;SDS011;65470;47.324;8.548;2023-05-07T02:54:34;4.80;;;3.67;;
32810;SDS011;65470;47.324;8.548;2023-05-07T02:56:59;4.63;;;3.60;;
32810;SDS011;65470;47.324;8.548;2023-05-07T02:59:26;3.55;;;3.25;;
32810;SDS011;65470;47.324;8.548;2023-05-07T03:01:51;5.53;;;3.72;;
32810;SDS011;65470;47.324;8.548;2023-05-07T03:04:17;6.13;;;3.53;;
32810;SDS011;65470;47.324;8.548;2023-05-07T03:06:42;5.60;;;3.40;;
32810;SDS011;65470;47.324;8.548;2023-05-07T03:09:08;4.72;;;3.28;;
32810;SDS011;65470;47.324;8.548;2023-05-07T03:11:34;4.65;;;3.05;;
32810;SDS011;65470;47.324;8.548;2023-05-07T03:14:00;3.45;;;2.80;;
32810;SDS011;65470;47.324;8.548;2023-05-07T03:16:26;7.40;;;3.22;;
32810;SDS011;65470;47.324;8.548;2023-05-07T03:18:52;3.78;;;2.97;;
32810;SDS011;65470;47.324;8.548;2023-05-07T03:21:18;5.47;;;3.40;;
32810;SDS011;65470;47.324;8.548;2023-05-07T03:23:43;9.07;;;3.30;;
32810;SDS011;65470;47.324;8.548;2023-05-07T03:26:09;8.20;;;3.92;;
32810;SDS011;65470;47.324;8.548;2023-05-07T03:28:34;4.50;;;3.08;;
32810;SDS011;65470;47.324;8.548;2023-05-07T03:31:02;4.18;;;3.35;;
32810;SDS011;65470;47.324;8.548;2023-05-07T03:33:27;2.95;;;2.75;;
32810;SDS011;65470;47.324;8.548;2023-05-07T03:35:53;4.28;;;2.78;;
32810;SDS011;65470;47.324;8.548;2023-05-07T03:38:19;4.68;;;2.92;;
32810;SDS011;65470;47.324;8.548;2023-05-07T03:40:44;3.20;;;2.90;;
32810;SDS011;65470;47.324;8.548;2023-05-07T03:43:10;6.35;;;3.20;;
32810;SDS011;65470;47.324;8.548;2023-05-07T03:45:35;5.13;;;3.03;;
32810;SDS011;65470;47.324;8.548;2023-05-07T03:48:01;4.68;;;3.00;;
32810;SDS011;65470;47.324;8.548;2023-05-07T03:50:27;6.00;;;3.20;;
32810;SDS011;65470;47.324;8.548;2023-05-07T03:52:52;3.75;;;3.13;;
32810;SDS011;65470;47.324;8.548;2023-05-07T03:55:18;6.38;;;3.15;;
32810;SDS011;65470;47.324;8.548;2023-05-07T03:57:44;4.78;;;3.17;;
32810;SDS011;65470;47.324;8.548;2023-05-07T04:00:09;4.72;;;3.00;;
32810;SDS011;65470;47.324;8.548;2023-05-07T04:02:36;3.45;;;3.10;;
32810;SDS011;65470;47.324;8.548;2023-05-07T04:05:01;3.42;;;3.13;;
32810;SDS011;65470;47.324;8.548;2023-05-07T04:07:27;3.13;;;2.83;;
32810;SDS011;65470;47.324;8.548;2023-05-07T04:09:52;4.90;;;3.05;;
32810;SDS011;65470;47.324;8.548;2023-05-07T04:12:18;4.30;;;3.00;;
32810;SDS011;65470;47.324;8.548;2023-05-07T04:14:44;5.55;;;3.22;;
32810;SDS011;65470;47.324;8.548;2023-05-07T04:17:10;4.35;;;3.20;;
32810;SDS011;65470;47.324;8.548;2023-05-07T04:19:35;6.65;;;3.20;;
32810;SDS011;65470;47.324;8.548;2023-05-07T04:22:01;3.75;;;3.28;;
32810;SDS011;65470;47.324;8.548;2023-05-07T04:24:27;3.75;;;3.35;;
32810;SDS011;65470;47.324;8.548;2023-05-07T04:26:52;4.38;;;3.40;;
32810;SDS011;65470;47.324;8.548;2023-05-07T04:29:18;4.50;;;3.20;;
32810;SDS011;65470;47.324;8.548;2023-05-07T04:31:44;3.90;;;3.17;;
32810;SDS011;65470;47.324;8.548;2023-05-07T04:34:10;3.97;;;3.58;;
32810;SDS011;65470;47.324;8.548;2023-05-07T04:36:37;13.07;;;3.20;;
32810;SDS011;65470;47.324;8.548;2023-05-07T04:39:03;4.90;;;3.28;;
32810;SDS011;65470;47.324;8.548;2023-05-07T04:41:29;6.97;;;3.20;;
32810;SDS011;65470;47.324;8.548;2023-05-07T04:43:55;3.90;;;3.13;;
32810;SDS011;65470;47.324;8.548;2023-05-07T04:46:21;3.95;;;3.10;;
32810;SDS011;65470;47.324;8.548;2023-05-07T04:48:48;4.32;;;3.17;;
32810;SDS011;65470;47.324;8.548;2023-05-07T04:51:14;4.47;;;2.75;;
32810;SDS011;65470;47.324;8.548;2023-05-07T04:53:40;2.85;;;2.65;;
32810;SDS011;65470;47.324;8.548;2023-05-07T04:56:06;3.92;;;2.90;;
32810;SDS011;65470;47.324;8.548;2023-05-07T04:58:32;4.47;;;2.95;;
32810;SDS011;65470;47.324;8.548;2023-05-07T05:00:58;3.25;;;2.58;;
32810;SDS011;65470;47.324;8.548;2023-05-07T05:03:24;3.63;;;2.38;;
32810;SDS011;65470;47.324;8.548;2023-05-07T05:05:50;3.55;;;2.60;;
32810;SDS011;65470;47.324;8.548;2023-05-07T05:08:17;3.10;;;2.80;;
32810;SDS011;65470;47.324;8.548;2023-05-07T05:10:43;6.22;;;2.50;;
32810;SDS011;65470;47.324;8.548;2023-05-07T05:13:09;5.30;;;2.60;;
32810;SDS011;65470;47.324;8.548;2023-05-07T05:15:37;2.78;;;2.40;;
32810;SDS011;65470;47.324;8.548;2023-05-07T05:18:03;3.35;;;2.80;;
32810;SDS011;65470;47.324;8.548;2023-05-07T05:20:29;4.22;;;2.88;;
32810;SDS011;65470;47.324;8.548;2023-05-07T05:22:55;4.07;;;2.83;;
32810;SDS011;65470;47.324;8.548;2023-05-07T05:25:20;4.63;;;2.63;;
32810;SDS011;65470;47.324;8.548;2023-05-07T05:27:46;3.28;;;2.75;;
32810;SDS011;65470;47.324;8.548;2023-05-07T05:30:12;4.25;;;2.72;;
32810;SDS011;65470;47.324;8.548;2023-05-07T05:32:38;4.35;;;3.13;;
32810;SDS011;65470;47.324;8.548;2023-05-07T05:35:03;7.28;;;2.83;;
32810;SDS011;65470;47.324;8.548;2023-05-07T05:37:29;4.07;;;2.65;;
32810;SDS011;65470;47.324;8.548;2023-05-07T05:39:56;3.20;;;2.55;;
32810;SDS011;65470;47.324;8.548;2023-05-07T05:42:22;4.30;;;2.33;;
32810;SDS011;65470;47.324;8.548;2023-05-07T05:44:48;3.00;;;2.63;;
32810;SDS011;65470;47.324;8.548;2023-05-07T05:47:13;3.50;;;2.63;;
32810;SDS011;65470;47.324;8.548;2023-05-07T05:49:39;4.65;;;2.80;;
32810;SDS011;65470;47.324;8.548;2023-05-07T05:52:05;3.38;;;3.03;;
32810;SDS011;65470;47.324;8.548;2023-05-07T05:54:30;3.30;;;2.92;;
32810;SDS011;65470;47.324;8.548;2023-05-07T05:56:56;6.13;;;2.95;;
32810;SDS011;65470;47.324;8.548;2023-05-07T05:59:22;7.05;;;3.00;;
32810;SDS011;65470;47.324;8.548;2023-05-07T06:01:48;7.50;;;3.00;;
32810;SDS011;65470;47.324;8.548;2023-05-07T06:04:13;3.05;;;2.50;;
32810;SDS011;65470;47.324;8.548;2023-05-07T06:06:39;2.72;;;2.53;;
32810;SDS011;65470;47.324;8.548;2023-05-07T06:09:05;5.10;;;2.50;;
32810;SDS011;65470;47.324;8.548;2023-05-07T06:11:31;3.88;;;2.45;;
32810;SDS011;65470;47.324;8.548;2023-05-07T06:13:57;3.33;;;2.25;;
32810;SDS011;65470;47.324;8.548;2023-05-07T06:16:22;4.53;;;2.35;;
32810;SDS011;65470;47.324;8.548;2023-05-07T06:18:49;3.55;;;2.15;;
32810;SDS011;65470;47.324;8.548;2023-05-07T06:21:15;4.03;;;2.40;;
32810;SDS011;65470;47.324;8.548;2023-05-07T06:23:41;2.95;;;2.28;;
32810;SDS011;65470;47.324;8.548;2023-05-07T06:26:06;3.33;;;2.83;;
32810;SDS011;65470;47.324;8.548;2023-05-07T06:28:32;2.53;;;2.33;;
32810;SDS011;65470;47.324;8.548;2023-05-07T06:31:16;2.40;;;2.20;;
32810;SDS011;65470;47.324;8.548;2023-05-07T06:33:45;3.70;;;2.45;;
32810;SDS011;65470;47.324;8.548;2023-05-07T06:36:11;7.47;;;2.60;;
32810;SDS011;65470;47.324;8.548;2023-05-07T06:38:37;3.47;;;2.80;;
32810;SDS011;65470;47.324;8.548;2023-05-07T06:41:02;7.32;;;2.90;;
32810;SDS011;65470;47.324;8.548;2023-05-07T06:43:28;4.45;;;2.85;;
32810;SDS011;65470;47.324;8.548;2023-05-07T06:45:53;5.78;;;2.80;;
32810;SDS011;65470;47.324;8.548;2023-05-07T06:48:19;3.83;;;2.53;;
32810;SDS011;65470;47.324;8.548;2023-05-07T06:50:45;2.63;;;2.42;;
32810;SDS011;65470;47.324;8.548;2023-05-07T06:53:10;6.05;;;2.70;;
32810;SDS011;65470;47.324;8.548;2023-05-07T06:55:36;4.28;;;2.70;;
32810;SDS011;65470;47.324;8.548;2023-05-07T06:58:03;4.97;;;2.92;;
32810;SDS011;65470;47.324;8.548;2023-05-07T07:00:29;6.03;;;3.10;;
32810;SDS011;65470;47.324;8.548;2023-05-07T07:02:55;3.88;;;2.65;;
32810;SDS011;65470;47.324;8.548;2023-05-07T07:05:21;8.18;;;2.60;;
32810;SDS011;65470;47.324;8.548;2023-05-07T07:07:47;3.90;;;2.40;;
32810;SDS011;65470;47.324;8.548;2023-05-07T07:10:21;3.67;;;2.70;;
32810;SDS011;65470;47.324;8.548;2023-05-07T07:12:47;3.55;;;2.83;;
32810;SDS011;65470;47.324;8.548;2023-05-07T07:15:13;6.75;;;3.28;;
32810;SDS011;65470;47.324;8.548;2023-05-07T07:17:39;4.80;;;3.92;;
32810;SDS011;65470;47.324;8.548;2023-05-07T07:20:04;10.07;;;4.30;;
32810;SDS011;65470;47.324;8.548;2023-05-07T07:22:31;3.20;;;2.90;;
32810;SDS011;65470;47.324;8.548;2023-05-07T07:24:56;2.97;;;2.67;;
32810;SDS011;65470;47.324;8.548;2023-05-07T07:27:22;4.55;;;3.08;;
32810;SDS011;65470;47.324;8.548;2023-05-07T07:29:47;4.18;;;2.63;;
32810;SDS011;65470;47.324;8.548;2023-05-07T07:32:13;2.92;;;2.60;;
32810;SDS011;65470;47.324;8.548;2023-05-07T07:34:39;5.63;;;1.98;;
32810;SDS011;65470;47.324;8.548;2023-05-07T07:37:04;4.00;;;2.38;;
32810;SDS011;65470;47.324;8.548;2023-05-07T07:39:33;3.67;;;1.90;;
32810;SDS011;65470;47.324;8.548;2023-05-07T07:42:00;2.38;;;2.17;;
32810;SDS011;65470;47.324;8.548;2023-05-07T07:44:26;2.88;;;2.13;;
32810;SDS011;65470;47.324;8.548;2023-05-07T07:46:52;3.78;;;1.80;;
32810;SDS011;65470;47.324;8.548;2023-05-07T07:49:18;3.38;;;1.90;;
32810;SDS011;65470;47.324;8.548;2023-05-07T07:51:43;2.85;;;1.95;;
32810;SDS011;65470;47.324;8.548;2023-05-07T07:54:09;2.22;;;2.00;;
32810;SDS011;65470;47.324;8.548;2023-05-07T07:56:35;3.55;;;1.77;;
32810;SDS011;65470;47.324;8.548;2023-05-07T07:59:00;4.18;;;1.90;;
32810;SDS011;65470;47.324;8.548;2023-05-07T08:01:26;3.47;;;1.90;;
32810;SDS011;65470;47.324;8.548;2023-05-07T08:03:54;2.58;;;2.00;;
32810;SDS011;65470;47.324;8.548;2023-05-07T08:06:20;2.95;;;1.90;;
32810;SDS011;65470;47.324;8.548;2023-05-07T08:08:46;3.60;;;2.17;;
32810;SDS011;65470;47.324;8.548;2023-05-07T08:11:11;3.75;;;2.30;;
32810;SDS011;65470;47.324;8.548;2023-05-07T08:13:37;5.22;;;2.17;;
32810;SDS011;65470;47.324;8.548;2023-05-07T08:16:03;2.88;;;2.10;;
32810;SDS011;65470;47.324;8.548;2023-05-07T08:18:29;5.22;;;2.00;;
32810;SDS011;65470;47.324;8.548;2023-05-07T08:20:55;4.03;;;2.10;;
32810;SDS011;65470;47.324;8.548;2023-05-07T08:23:21;2.33;;;2.13;;
32810;SDS011;65470;47.324;8.548;2023-05-07T08:25:47;2.47;;;2.28;;
32810;SDS011;65470;47.324;8.548;2023-05-07T08:28:14;2.58;;;2.22;;
32810;SDS011;65470;47.324;8.548;2023-05-07T08:30:40;2.67;;;2.47;;
32810;SDS011;65470;47.324;8.548;2023-05-07T08:33:06;4.63;;;3.03;;
32810;SDS011;65470;47.324;8.548;2023-05-07T08:35:33;4.80;;;2.47;;
32810;SDS011;65470;47.324;8.548;2023-05-07T08:37:58;3.63;;;2.47;;
32810;SDS011;65470;47.324;8.548;2023-05-07T08:40:25;5.15;;;2.90;;
32810;SDS011;65470;47.324;8.548;2023-05-07T08:42:52;3.47;;;2.63;;
32810;SDS011;65470;47.324;8.548;2023-05-07T08:45:19;4.05;;;2.80;;
32810;SDS011;65470;47.324;8.548;2023-05-07T08:47:52;3.88;;;2.95;;
32810;SDS011;65470;47.324;8.548;2023-05-07T08:50:23;5.30;;;2.45;;
32810;SDS011;65470;47.324;8.548;2023-05-07T08:52:49;3.05;;;2.45;;
32810;SDS011;65470;47.324;8.548;2023-05-07T08:55:15;3.70;;;2.65;;
32810;SDS011;65470;47.324;8.548;2023-05-07T08:57:41;8.70;;;3.08;;
32810;SDS011;65470;47.324;8.548;2023-05-07T09:00:07;3.88;;;2.50;;
32810;SDS011;65470;47.324;8.548;2023-05-07T09:02:34;3.30;;;2.67;;
32810;SDS011;65470;47.324;8.548;2023-05-07T09:05:00;3.08;;;2.20;;
32810;SDS011;65470;47.324;8.548;2023-05-07T09:07:26;4.45;;;2.47;;
32810;SDS011;65470;47.324;8.548;2023-05-07T09:09:52;7.50;;;3.00;;
32810;SDS011;65470;47.324;8.548;2023-05-07T09:12:18;4.95;;;2.97;;
32810;SDS011;65470;47.324;8.548;2023-05-07T09:14:45;5.68;;;2.28;;
32810;SDS011;65470;47.324;8.548;2023-05-07T09:17:11;3.33;;;2.13;;
32810;SDS011;65470;47.324;8.548;2023-05-07T09:19:36;3.10;;;2.10;;
32810;SDS011;65470;47.324;8.548;2023-05-07T09:22:02;4.10;;;2.58;;
32810;SDS011;65470;47.324;8.548;2023-05-07T09:24:29;3.25;;;2.40;;
32810;SDS011;65470;47.324;8.548;2023-05-07T09:26:59;3.92;;;2.63;;
32810;SDS011;65470;47.324;8.548;2023-05-07T09:29:29;2.70;;;2.50;;
32810;SDS011;65470;47.324;8.548;2023-05-07T09:32:00;3.72;;;2.60;;
32810;SDS011;65470;47.324;8.548;2023-05-07T09:34:26;4.60;;;2.58;;
32810;SDS011;65470;47.324;8.548;2023-05-07T09:36:52;5.90;;;2.78;;
32810;SDS011;65470;47.324;8.548;2023-05-07T09:39:19;4.65;;;2.75;;
32810;SDS011;65470;47.324;8.548;2023-05-07T09:41:45;3.30;;;2.97;;
32810;SDS011;65470;47.324;8.548;2023-05-07T09:44:12;2.30;;;2.00;;
32810;SDS011;65470;47.324;8.548;2023-05-07T09:46:44;4.82;;;2.97;;
32810;SDS011;65470;47.324;8.548;2023-05-07T09:49:23;3.97;;;2.72;;
32810;SDS011;65470;47.324;8.548;2023-05-07T09:51:51;3.47;;;2.70;;
32810;SDS011;65470;47.324;8.548;2023-05-07T09:54:17;3.28;;;2.10;;
32810;SDS011;65470;47.324;8.548;2023-05-07T09:56:47;1.88;;;1.67;;
32810;SDS011;65470;47.324;8.548;2023-05-07T09:59:14;2.30;;;1.88;;
32810;SDS011;65470;47.324;8.548;2023-05-07T10:01:41;2.88;;;1.52;;
32810;SDS011;65470;47.324;8.548;2023-05-07T10:04:08;2.25;;;1.90;;
32810;SDS011;65470;47.324;8.548;2023-05-07T10:06:35;7.38;;;2.10;;
32810;SDS011;65470;47.324;8.548;2023-05-07T10:09:01;2.45;;;1.50;;
32810;SDS011;65470;47.324;8.548;2023-05-07T10:11:27;2.85;;;1.58;;
32810;SDS011;65470;47.324;8.548;2023-05-07T10:13:53;1.60;;;1.50;;
32810;SDS011;65470;47.324;8.548;2023-05-07T10:16:20;1.70;;;1.60;;
32810;SDS011;65470;47.324;8.548;2023-05-07T10:18:46;3.60;;;1.50;;
32810;SDS011;65470;47.324;8.548;2023-05-07T10:21:20;2.47;;;1.58;;
32810;SDS011;65470;47.324;8.548;2023-05-07T10:23:53;2.33;;;1.60;;
32810;SDS011;65470;47.324;8.548;2023-05-07T10:26:25;3.25;;;2.00;;
32810;SDS011;65470;47.324;8.548;2023-05-07T10:28:55;2.40;;;1.92;;
32810;SDS011;65470;47.324;8.548;2023-05-07T10:34:21;3.75;;;1.90;;
32810;SDS011;65470;47.324;8.548;2023-05-07T10:36:50;2.67;;;1.80;;
32810;SDS011;65470;47.324;8.548;2023-05-07T10:39:17;3.17;;;1.70;;
32810;SDS011;65470;47.324;8.548;2023-05-07T10:41:45;2.58;;;1.60;;
32810;SDS011;65470;47.324;8.548;2023-05-07T10:44:11;2.53;;;1.90;;
32810;SDS011;65470;47.324;8.548;2023-05-07T10:46:36;4.68;;;2.03;;
32810;SDS011;65470;47.324;8.548;2023-05-07T10:51:28;3.13;;;2.15;;
32810;SDS011;65470;47.324;8.548;2023-05-07T10:56:40;2.78;;;2.50;;
32810;SDS011;65470;47.324;8.548;2023-05-07T11:01:54;3.38;;;1.77;;
32810;SDS011;65470;47.324;8.548;2023-05-07T11:04:22;2.63;;;1.50;;
32810;SDS011;65470;47.324;8.548;2023-05-07T11:07:26;2.40;;;1.77;;
32810;SDS011;65470;47.324;8.548;2023-05-07T11:12:16;2.50;;;1.73;;
32810;SDS011;65470;47.324;8.548;2023-05-07T11:15:36;1.85;;;1.20;;
32810;SDS011;65470;47.324;8.548;2023-05-07T11:18:08;2.42;;;1.80;;
32810;SDS011;65470;47.324;8.548;2023-05-07T11:20:47;1.60;;;1.50;;
32810;SDS011;65470;47.324;8.548;2023-05-07T11:26:03;3.75;;;1.50;;
32810;SDS011;65470;47.324;8.548;2023-05-07T11:28:30;3.63;;;1.75;;
32810;SDS011;65470;47.324;8.548;2023-05-07T11:30:56;2.05;;;1.38;;
32810;SDS011;65470;47.324;8.548;2023-05-07T11:33:23;2.28;;;1.60;;
32810;SDS011;65470;47.324;8.548;2023-05-07T11:35:53;4.80;;;1.88;;
32810;SDS011;65470;47.324;8.548;2023-05-07T11:38:19;3.88;;;1.95;;
32810;SDS011;65470;47.324;8.548;2023-05-07T11:40:57;1.90;;;1.70;;
32810;SDS011;65470;47.324;8.548;2023-05-07T11:43:25;1.67;;;1.48;;
32810;SDS011;65470;47.324;8.548;2023-05-07T11:45:51;3.05;;;1.73;;
32810;SDS011;65470;47.324;8.548;2023-05-07T11:48:17;2.65;;;1.80;;
32810;SDS011;65470;47.324;8.548;2023-05-07T11:53:27;3.38;;;2.25;;
32810;SDS011;65470;47.324;8.548;2023-05-07T11:55:59;3.10;;;2.15;;
32810;SDS011;65470;47.324;8.548;2023-05-07T11:58:25;3.55;;;2.17;;
32810;SDS011;65470;47.324;8.548;2023-05-07T12:00:52;5.80;;;2.20;;
32810;SDS011;65470;47.324;8.548;2023-05-07T12:03:18;2.92;;;2.20;;
32810;SDS011;65470;47.324;8.548;2023-05-07T12:05:45;2.38;;;1.90;;
32810;SDS011;65470;47.324;8.548;2023-05-07T12:08:18;2.33;;;2.00;;
32810;SDS011;65470;47.324;8.548;2023-05-07T12:10:45;2.10;;;1.85;;
32810;SDS011;65470;47.324;8.548;2023-05-07T12:13:16;2.50;;;2.30;;
32810;SDS011;65470;47.324;8.548;2023-05-07T12:15:42;4.40;;;2.47;;
32810;SDS011;65470;47.324;8.548;2023-05-07T12:18:08;2.88;;;2.28;;
32810;SDS011;65470;47.324;8.548;2023-05-07T12:20:36;2.70;;;2.20;;
32810;SDS011;65470;47.324;8.548;2023-05-07T12:23:02;3.28;;;2.55;;
32810;SDS011;65470;47.324;8.548;2023-05-07T12:25:34;2.88;;;2.38;;
32810;SDS011;65470;47.324;8.548;2023-05-07T12:28:04;4.40;;;2.45;;
32810;SDS011;65470;47.324;8.548;2023-05-07T12:30:31;4.38;;;2.80;;
32810;SDS011;65470;47.324;8.548;2023-05-07T12:32:57;5.15;;;2.78;;
32810;SDS011;65470;47.324;8.548;2023-05-07T12:35:42;2.92;;;2.63;;
32810;SDS011;65470;47.324;8.548;2023-05-07T12:38:12;3.17;;;2.40;;
32810;SDS011;65470;47.324;8.548;2023-05-07T12:43:06;4.43;;;3.00;;
32810;SDS011;65470;47.324;8.548;2023-05-07T12:45:41;3.10;;;2.38;;
32810;SDS011;65470;47.324;8.548;2023-05-07T12:48:09;6.10;;;2.45;;
32810;SDS011;65470;47.324;8.548;2023-05-07T12:50:35;3.47;;;2.72;;
32810;SDS011;65470;47.324;8.548;2023-05-07T12:53:03;4.78;;;3.05;;
32810;SDS011;65470;47.324;8.548;2023-05-07T12:55:40;6.13;;;3.08;;
32810;SDS011;65470;47.324;8.548;2023-05-07T12:58:20;3.33;;;3.10;;
32810;SDS011;65470;47.324;8.548;2023-05-07T13:00:56;6.10;;;3.10;;
32810;SDS011;65470;47.324;8.548;2023-05-07T13:06:00;9.20;;;3.42;;
32810;SDS011;65470;47.324;8.548;2023-05-07T13:08:33;3.97;;;3.20;;
32810;SDS011;65470;47.324;8.548;2023-05-07T13:11:01;3.35;;;2.90;;
32810;SDS011;65470;47.324;8.548;2023-05-07T13:13:28;3.55;;;2.92;;
32810;SDS011;65470;47.324;8.548;2023-05-07T13:15:57;3.55;;;3.15;;
32810;SDS011;65470;47.324;8.548;2023-05-07T13:18:26;3.38;;;3.08;;
32810;SDS011;65470;47.324;8.548;2023-05-07T13:20:55;5.63;;;3.40;;
32810;SDS011;65470;47.324;8.548;2023-05-07T13:23:21;4.07;;;3.67;;
32810;SDS011;65470;47.324;8.548;2023-05-07T13:25:47;5.47;;;3.53;;
32810;SDS011;65470;47.324;8.548;2023-05-07T13:28:13;6.53;;;3.53;;
32810;SDS011;65470;47.324;8.548;2023-05-07T13:30:39;6.25;;;3.72;;
32810;SDS011;65470;47.324;8.548;2023-05-07T13:33:05;4.93;;;3.45;;
32810;SDS011;65470;47.324;8.548;2023-05-07T13:35:31;4.30;;;3.20;;
32810;SDS011;65470;47.324;8.548;2023-05-07T13:37:57;5.30;;;3.53;;
32810;SDS011;65470;47.324;8.548;2023-05-07T13:40:23;3.33;;;3.03;;
32810;SDS011;65470;47.324;8.548;2023-05-07T13:42:49;5.15;;;3.55;;
32810;SDS011;65470;47.324;8.548;2023-05-07T13:45:15;4.22;;;2.92;;
32810;SDS011;65470;47.324;8.548;2023-05-07T13:47:45;4.63;;;3.40;;
32810;SDS011;65470;47.324;8.548;2023-05-07T13:50:11;4.22;;;2.97;;
32810;SDS011;65470;47.324;8.548;2023-05-07T13:52:39;5.07;;;3.58;;
32810;SDS011;65470;47.324;8.548;2023-05-07T13:55:10;5.13;;;3.42;;
32810;SDS011;65470;47.324;8.548;2023-05-07T13:57:36;7.68;;;3.33;;
32810;SDS011;65470;47.324;8.548;2023-05-07T14:00:03;4.28;;;3.38;;
32810;SDS011;65470;47.324;8.548;2023-05-07T14:02:30;4.13;;;3.45;;
32810;SDS011;65470;47.324;8.548;2023-05-07T14:04:56;6.70;;;3.28;;
32810;SDS011;65470;47.324;8.548;2023-05-07T14:07:21;5.05;;;3.08;;
32810;SDS011;65470;47.324;8.548;2023-05-07T14:09:47;5.53;;;3.30;;
32810;SDS011;65470;47.324;8.548;2023-05-07T14:12:13;4.38;;;2.90;;
32810;SDS011;65470;47.324;8.548;2023-05-07T14:14:38;3.47;;;2.85;;
32810;SDS011;65470;47.324;8.548;2023-05-07T14:17:04;4.22;;;3.10;;
32810;SDS011;65470;47.324;8.548;2023-05-07T14:19:29;3.33;;;2.95;;
32810;SDS011;65470;47.324;8.548;2023-05-07T14:21:55;4.78;;;2.95;;
32810;SDS011;65470;47.324;8.548;2023-05-07T14:24:21;3.85;;;2.63;;
32810;SDS011;65470;47.324;8.548;2023-05-07T14:26:46;5.05;;;3.60;;
32810;SDS011;65470;47.324;8.548;2023-05-07T14:29:12;3.55;;;3.00;;
32810;SDS011;65470;47.324;8.548;2023-05-07T14:31:38;4.47;;;2.80;;
32810;SDS011;65470;47.324;8.548;2023-05-07T14:34:04;2.97;;;2.58;;
32810;SDS011;65470;47.324;8.548;2023-05-07T14:36:30;4.13;;;2.60;;
32810;SDS011;65470;47.324;8.548;2023-05-07T14:38:56;3.28;;;2.20;;
32810;SDS011;65470;47.324;8.548;2023-05-07T14:41:24;2.55;;;2.35;;
32810;SDS011;65470;47.324;8.548;2023-05-07T14:43:50;3.67;;;2.35;;
32810;SDS011;65470;47.324;8.548;2023-05-07T14:46:16;3.60;;;2.28;;
32810;SDS011;65470;47.324;8.548;2023-05-07T14:48:43;2.38;;;2.00;;
32810;SDS011;65470;47.324;8.548;2023-05-07T14:51:10;2.72;;;2.25;;
32810;SDS011;65470;47.324;8.548;2023-05-07T14:53:36;2.13;;;1.92;;
32810;SDS011;65470;47.324;8.548;2023-05-07T14:56:01;6.05;;;2.60;;
32810;SDS011;65470;47.324;8.548;2023-05-07T14:58:28;2.78;;;2.38;;
32810;SDS011;65470;47.324;8.548;2023-05-07T15:00:53;2.45;;;2.08;;
32810;SDS011;65470;47.324;8.548;2023-05-07T15:03:19;2.67;;;2.25;;
32810;SDS011;65470;47.324;8.548;2023-05-07T15:05:45;2.38;;;2.17;;
32810;SDS011;65470;47.324;8.548;2023-05-07T15:08:11;4.22;;;2.35;;
32810;SDS011;65470;47.324;8.548;2023-05-07T15:10:37;3.22;;;2.40;;
32810;SDS011;65470;47.324;8.548;2023-05-07T15:13:05;3.15;;;2.10;;